createdAt,value
2019-03-28T00:00:44.922Z,100409.69
2019-03-28T00:02:19.619Z,100414.28
2019-03-28T00:03:53.941Z,100410.73
2019-03-28T00:05:28.487Z,100416.32
2019-03-28T00:07:02.720Z,100417.68
2019-03-28T00:08:36.447Z,100410.23
2019-03-28T00:10:10.228Z,100419.31
2019-03-28T00:11:44.694Z,100411.61
2019-03-28T00:13:18.947Z,100417.92
2019-03-28T00:14:52.593Z,100417.05
2019-03-28T00:16:26.920Z,100413.45
2019-03-28T00:18:02.312Z,100417.08
2019-03-28T00:19:36.696Z,100414.27
2019-03-28T00:21:10.485Z,100409.20
2019-03-28T00:22:45.846Z,100406.45
2019-03-28T00:24:22.293Z,100411.95
2019-03-28T00:25:56.819Z,100408.78
2019-03-28T00:27:31.557Z,100411.81
2019-03-28T00:29:05.291Z,100408.39
2019-03-28T00:30:39.335Z,100403.23
2019-03-28T00:32:13.587Z,100411.65
2019-03-28T00:33:47.795Z,100411.83
2019-03-28T00:35:22.068Z,100413.37
2019-03-28T00:36:55.876Z,100411.84
2019-03-28T00:38:31.581Z,100413.97
2019-03-28T00:40:08.662Z,100413.79
2019-03-28T00:41:43.031Z,100410.23
2019-03-28T00:43:17.109Z,100406.53
2019-03-28T00:44:50.774Z,100404.06
2019-03-28T00:46:24.462Z,100407.67
2019-03-28T00:47:58.242Z,100406.02
2019-03-28T00:49:32.123Z,100405.14
2019-03-28T00:51:05.759Z,100407.20
2019-03-28T00:52:40.092Z,100413.96
2019-03-28T00:54:13.773Z,100408.73
2019-03-28T00:55:49.057Z,100416.50
2019-03-28T00:57:22.833Z,100417.94
2019-03-28T00:58:57.117Z,100416.50
2019-03-28T01:00:31.437Z,100416.53
2019-03-28T01:02:05.321Z,100426.45
2019-03-28T01:03:39.564Z,100427.22
2019-03-28T01:05:13.954Z,100427.47
2019-03-28T01:06:48.300Z,100438.78
2019-03-28T01:08:23.066Z,100431.09
2019-03-28T01:09:57.216Z,100428.49
2019-03-28T01:11:30.981Z,100433.66
2019-03-28T01:13:04.650Z,100433.51
2019-03-28T01:14:38.782Z,100435.61
2019-03-28T01:16:12.541Z,100433.47
2019-03-28T01:17:46.219Z,100436.53
2019-03-28T01:19:19.962Z,100430.13
2019-03-28T01:20:53.795Z,100432.83
2019-03-28T01:22:27.466Z,100433.04
2019-03-28T01:24:01.144Z,100437.51
2019-03-28T01:25:36.465Z,100432.39
2019-03-28T01:27:10.572Z,100434.16
2019-03-28T01:28:44.627Z,100433.72
2019-03-28T01:30:18.324Z,100438.62
2019-03-28T01:31:52.093Z,100445.33
2019-03-28T01:33:26.631Z,100441.73
2019-03-28T01:35:00.355Z,100447.70
2019-03-28T01:36:35.535Z,100449.65
2019-03-28T01:38:09.833Z,100452.41
2019-03-28T01:39:44.484Z,100449.30
2019-03-28T01:41:18.765Z,100453.98
2019-03-28T01:42:52.399Z,100449.84
2019-03-28T01:44:26.167Z,100454.84
2019-03-28T01:46:00.094Z,100450.01
2019-03-28T01:47:33.786Z,100441.15
2019-03-28T01:49:07.545Z,100438.20
2019-03-28T01:50:41.746Z,100435.52
2019-03-28T01:52:15.656Z,100437.08
2019-03-28T01:53:50.017Z,100436.63
2019-03-28T01:55:23.710Z,100436.73
2019-03-28T01:57:10.377Z,100439.94
2019-03-28T01:58:33.662Z,100436.67
2019-03-28T02:00:09.997Z,100441.98
2019-03-28T02:01:43.693Z,100438.28
2019-03-28T02:03:17.349Z,100441.12
2019-03-28T02:04:52.288Z,100444.47
2019-03-28T02:06:26.194Z,100457.09
2019-03-28T02:08:02.623Z,100455.61
2019-03-28T02:09:35.223Z,100455.05
2019-03-28T02:11:09.274Z,100462.23
2019-03-28T02:12:43.100Z,100459.38
2019-03-28T02:14:16.803Z,100458.73
2019-03-28T02:15:50.853Z,100459.28
2019-03-28T02:17:24.625Z,100464.37
2019-03-28T02:18:58.410Z,100468.67
2019-03-28T02:20:32.292Z,100463.88
2019-03-28T02:22:05.885Z,100465.82
2019-03-28T02:23:40.667Z,100464.64
2019-03-28T02:25:14.470Z,100466.14
2019-03-28T02:26:48.162Z,100468.72
2019-03-28T02:28:21.823Z,100463.24
2019-03-28T02:29:55.904Z,100471.78
2019-03-28T02:31:29.656Z,100471.21
2019-03-28T02:33:03.515Z,100471.78
2019-03-28T02:34:37.247Z,100464.60
2019-03-28T02:36:12.410Z,100466.53
2019-03-28T02:37:46.063Z,100470.24
2019-03-28T02:39:19.717Z,100464.39
2019-03-28T02:40:53.983Z,100462.71
2019-03-28T02:42:29.654Z,100461.38
2019-03-28T02:44:03.388Z,100467.66
2019-03-28T02:45:37.150Z,100461.91
2019-03-28T02:47:10.804Z,100463.91
2019-03-28T02:48:44.859Z,100468.63
2019-03-28T02:50:18.555Z,100469.13
2019-03-28T02:51:52.336Z,100475.89
2019-03-28T02:53:26.028Z,100468.63
2019-03-28T02:55:00.012Z,100475.52
2019-03-28T02:56:33.773Z,100474.53
2019-03-28T02:58:07.402Z,100473.82
2019-03-28T02:59:41.131Z,100489.16
2019-03-28T03:01:15.362Z,100492.32
2019-03-28T03:02:49.718Z,100487.42
2019-03-28T03:04:23.455Z,100485.07
2019-03-28T03:05:57.118Z,100480.97
2019-03-28T03:07:31.344Z,100490.62
2019-03-28T03:09:08.031Z,100493.63
2019-03-28T03:10:42.232Z,100489.16
2019-03-28T03:12:16.408Z,100493.30
2019-03-28T03:13:50.643Z,100496.52
2019-03-28T03:15:24.297Z,100490.40
2019-03-28T03:16:58.047Z,100499.58
2019-03-28T03:18:33.882Z,100497.64
2019-03-28T03:20:09.659Z,100497.93
2019-03-28T03:21:43.296Z,100495.52
2019-03-28T03:23:17.008Z,100500.03
2019-03-28T03:24:50.757Z,100507.67
2019-03-28T03:26:24.824Z,100507.04
2019-03-28T03:27:59.407Z,100515.52
2019-03-28T03:29:33.798Z,100517.73
2019-03-28T03:31:07.521Z,100525.03
2019-03-28T03:32:41.930Z,100520.48
2019-03-28T03:34:15.955Z,100526.96
2019-03-28T03:35:49.623Z,100518.91
2019-03-28T03:37:24.935Z,100523.83
2019-03-28T03:38:59.009Z,100530.28
2019-03-28T03:40:32.736Z,100529.96
2019-03-28T03:42:07.204Z,100530.77
2019-03-28T03:43:40.916Z,100533.98
2019-03-28T03:45:15.084Z,100537.03
2019-03-28T03:46:50.685Z,100443.01
2019-03-28T03:48:24.235Z,100534.03
2019-03-28T03:49:57.931Z,100536.16
2019-03-28T03:51:32.106Z,100529.97
2019-03-28T03:53:05.794Z,100532.69
2019-03-28T03:54:40.198Z,100533.48
2019-03-28T03:56:13.851Z,100535.71
2019-03-28T03:57:47.636Z,100541.50
2019-03-28T03:59:21.687Z,100547.14
2019-03-28T04:00:55.372Z,100541.11
2019-03-28T04:02:29.027Z,100541.42
2019-03-28T04:04:03.096Z,100539.50
2019-03-28T04:05:36.750Z,100537.63
2019-03-28T04:07:11.049Z,100537.20
2019-03-28T04:08:44.774Z,100545.27
2019-03-28T04:10:19.326Z,100540.48
2019-03-28T04:11:52.978Z,100542.25
2019-03-28T04:13:26.615Z,100546.11
2019-03-28T04:15:00.480Z,100545.87
2019-03-28T04:16:34.488Z,100551.51
2019-03-28T04:18:11.149Z,100546.11
2019-03-28T04:19:44.828Z,100547.85
2019-03-28T04:21:18.525Z,100551.36
2019-03-28T04:22:52.651Z,100545.41
2019-03-28T04:24:26.322Z,100547.36
2019-03-28T04:26:00.057Z,100556.26
2019-03-28T04:27:33.841Z,100550.45
2019-03-28T04:29:08.362Z,100554.42
2019-03-28T04:30:42.677Z,100560.39
2019-03-28T04:32:16.963Z,100557.59
2019-03-28T04:33:50.584Z,100550.98
2019-03-28T04:35:24.978Z,100556.66
2019-03-28T04:36:59.328Z,100557.42
2019-03-28T04:38:33.621Z,100565.32
2019-03-28T04:40:08.757Z,100568.86
2019-03-28T04:41:43.778Z,100567.42
2019-03-28T04:43:17.524Z,100577.27
2019-03-28T04:44:51.865Z,100579.07
2019-03-28T04:46:26.208Z,100572.80
2019-03-28T04:48:01.513Z,100579.75
2019-03-28T04:49:35.260Z,100583.52
2019-03-28T04:51:11.801Z,100586.81
2019-03-28T04:52:45.636Z,100592.31
2019-03-28T04:54:19.967Z,100596.89
2019-03-28T04:55:53.598Z,100599.81
2019-03-28T04:57:27.969Z,100595.12
2019-03-28T04:59:01.662Z,100597.23
2019-03-28T05:00:35.478Z,100600.62
2019-03-28T05:02:09.210Z,100599.22
2019-03-28T05:03:42.958Z,100603.13
2019-03-28T05:05:16.632Z,100598.66
2019-03-28T05:06:50.569Z,100594.05
2019-03-28T05:08:24.856Z,100600.66
2019-03-28T05:09:59.191Z,100595.67
2019-03-28T05:11:33.378Z,100597.97
2019-03-28T05:13:07.982Z,100600.40
2019-03-28T05:14:42.206Z,100594.58
2019-03-28T05:16:16.517Z,100593.80
2019-03-28T05:17:50.845Z,100594.52
2019-03-28T05:19:25.266Z,100601.77
2019-03-28T05:21:00.365Z,100596.81
2019-03-28T05:22:34.887Z,100604.58
2019-03-28T05:24:09.178Z,100599.09
2019-03-28T05:25:43.577Z,100598.27
2019-03-28T05:27:17.863Z,100592.15
2019-03-28T05:28:57.380Z,100592.32
2019-03-28T05:30:28.097Z,100592.55
2019-03-28T05:32:02.727Z,100592.65
2019-03-28T05:33:36.958Z,100596.17
2019-03-28T05:35:11.270Z,100594.24
2019-03-28T05:36:45.638Z,100587.48
2019-03-28T05:38:20.834Z,100591.36
2019-03-28T05:39:55.057Z,100589.62
2019-03-28T05:41:29.376Z,100589.87
2019-03-28T05:43:03.641Z,100587.23
2019-03-28T05:44:38.165Z,100582.05
2019-03-28T05:46:13.303Z,100586.17
2019-03-28T05:47:49.342Z,100588.94
2019-03-28T05:49:23.522Z,100586.91
2019-03-28T05:50:58.167Z,100589.55
2019-03-28T05:52:32.529Z,100582.42
2019-03-28T05:54:06.761Z,100583.09
2019-03-28T05:55:41.120Z,100584.42
2019-03-28T05:57:15.621Z,100580.83
2019-03-28T05:58:49.838Z,100581.84
2019-03-28T06:00:24.130Z,100577.75
2019-03-28T06:01:58.504Z,100576.56
2019-03-28T06:03:32.932Z,100578.20
2019-03-28T06:05:07.534Z,100577.98
2019-03-28T06:06:41.777Z,100575.42
2019-03-28T06:08:16.016Z,100580.81
2019-03-28T06:09:50.416Z,100582.17
2019-03-28T06:11:24.691Z,100580.47
2019-03-28T06:12:58.914Z,100581.58
2019-03-28T06:14:33.160Z,100579.02
2019-03-28T06:16:07.754Z,100586.84
2019-03-28T06:17:42.799Z,100586.14
2019-03-28T06:19:17.130Z,100591.76
2019-03-28T06:20:51.426Z,100587.72
2019-03-28T06:22:25.770Z,100592.15
2019-03-28T06:24:00.320Z,100593.56
2019-03-28T06:25:34.590Z,100595.16
2019-03-28T06:27:08.826Z,100599.14
2019-03-28T06:28:43.382Z,100595.80
2019-03-28T06:30:18.336Z,100589.55
2019-03-28T06:31:55.674Z,100589.69
2019-03-28T06:33:28.698Z,100589.17
2019-03-28T06:35:03.258Z,100584.69
2019-03-28T06:36:37.500Z,100590.58
2019-03-28T06:38:12.275Z,100596.06
2019-03-28T06:39:46.635Z,100594.75
2019-03-28T06:41:21.044Z,100593.39
2019-03-28T06:42:55.447Z,100592.80
2019-03-28T06:44:29.790Z,100593.95
2019-03-28T06:46:04.050Z,100595.59
2019-03-28T06:47:38.681Z,100593.78
2019-03-28T06:49:12.933Z,100590.13
2019-03-28T06:50:47.230Z,100592.46
2019-03-28T06:52:21.545Z,100597.70
2019-03-28T06:53:57.224Z,100594.31
2019-03-28T06:55:31.853Z,100586.89
2019-03-28T06:57:06.093Z,100595.52
2019-03-28T06:58:40.382Z,100589.02
2019-03-28T07:00:15.019Z,100587.20
2019-03-28T07:01:49.356Z,100586.69
2019-03-28T07:03:23.665Z,100582.92
2019-03-28T07:04:57.913Z,100579.47
2019-03-28T07:06:35.630Z,100584.58
2019-03-28T07:08:09.870Z,100586.30
2019-03-28T07:09:44.342Z,100580.44
2019-03-28T07:11:19.019Z,100581.28
2019-03-28T07:12:53.694Z,100585.95
2019-03-28T07:14:28.316Z,100584.86
2019-03-28T07:16:02.986Z,100584.41
2019-03-28T07:17:37.288Z,100584.81
2019-03-28T07:19:11.750Z,100581.20
2019-03-28T07:20:46.064Z,100583.08
2019-03-28T07:22:20.362Z,100582.78
2019-03-28T07:23:54.581Z,100576.98
2019-03-28T07:25:29.147Z,100576.41
2019-03-28T07:27:03.693Z,100574.05
2019-03-28T07:28:37.940Z,100577.30
2019-03-28T07:30:14.037Z,100576.42
2019-03-28T07:31:48.707Z,100576.25
2019-03-28T07:33:22.975Z,100574.83
2019-03-28T07:34:57.204Z,100576.80
2019-03-28T07:36:31.469Z,100574.81
2019-03-28T07:38:06.061Z,100576.78
2019-03-28T07:39:40.336Z,100575.97
2019-03-28T07:41:16.508Z,100569.39
2019-03-28T07:42:50.890Z,100566.52
2019-03-28T07:44:25.654Z,100568.01
2019-03-28T07:45:59.936Z,100567.84
2019-03-28T07:47:34.172Z,100568.61
2019-03-28T07:49:08.470Z,100570.49
2019-03-28T07:50:42.963Z,100574.55
2019-03-28T07:52:20.002Z,100569.66
2019-03-28T07:53:53.156Z,100572.91
2019-03-28T07:55:27.438Z,100565.72
2019-03-28T07:57:01.984Z,100560.92
2019-03-28T07:58:38.258Z,100558.32
2019-03-28T08:00:13.910Z,100560.66
2019-03-28T08:01:48.243Z,100558.85
2019-03-28T08:03:22.601Z,100560.20
2019-03-28T08:04:56.873Z,100554.08
2019-03-28T08:06:31.092Z,100559.64
2019-03-28T08:08:05.377Z,100553.83
2019-03-28T08:09:40.177Z,100548.95
2019-03-28T08:11:14.495Z,100549.39
2019-03-28T08:12:48.786Z,100552.91
2019-03-28T08:14:23.617Z,100550.08
2019-03-28T08:15:57.963Z,100542.61
2019-03-28T08:17:33.200Z,100543.38
2019-03-28T08:19:08.137Z,100547.22
2019-03-28T08:20:42.591Z,100542.98
2019-03-28T08:22:17.046Z,100543.84
2019-03-28T08:23:51.275Z,100545.73
2019-03-28T08:25:25.573Z,100538.27
2019-03-28T08:26:59.899Z,100540.00
2019-03-28T08:28:34.738Z,100535.27
2019-03-28T08:30:18.110Z,100535.36
2019-03-28T08:31:48.468Z,100532.30
2019-03-28T08:33:22.801Z,100535.98
2019-03-28T08:34:57.320Z,100532.16
2019-03-28T08:36:31.597Z,100526.02
2019-03-28T08:38:09.687Z,100533.10
2019-03-28T08:39:44.648Z,100529.34
2019-03-28T08:41:19.744Z,100529.38
2019-03-28T08:42:54.440Z,100531.69
2019-03-28T08:44:28.659Z,100533.27
2019-03-28T08:46:03.552Z,100529.61
2019-03-28T08:47:38.390Z,100532.02
2019-03-28T08:49:12.669Z,100525.27
2019-03-28T08:50:46.978Z,100522.89
2019-03-28T08:52:21.278Z,100527.97
2019-03-28T08:53:56.120Z,100530.47
2019-03-28T08:55:30.323Z,100521.55
2019-03-28T08:57:04.618Z,100523.55
2019-03-28T08:58:38.855Z,100522.62
2019-03-28T09:00:16.421Z,100517.75
2019-03-28T09:01:49.456Z,100520.18
2019-03-28T09:03:23.725Z,100513.72
2019-03-28T09:04:58.040Z,100519.81
2019-03-28T09:06:32.968Z,100514.20
2019-03-28T09:08:07.310Z,100512.95
2019-03-28T09:09:41.577Z,100514.61
2019-03-28T09:11:15.861Z,100514.57
2019-03-28T09:12:50.517Z,100504.69
2019-03-28T09:14:24.823Z,100501.97
2019-03-28T09:15:59.059Z,100513.73
2019-03-28T09:17:33.399Z,100512.16
2019-03-28T09:19:10.531Z,100507.17
2019-03-28T09:20:44.754Z,100506.84
2019-03-28T09:22:18.988Z,100510.06
2019-03-28T09:23:53.289Z,100506.84
2019-03-28T09:25:27.953Z,100509.06
2019-03-28T09:27:02.294Z,100500.61
2019-03-28T09:28:36.583Z,100498.59
2019-03-28T09:30:11.626Z,100500.92
2019-03-28T09:31:46.140Z,100492.67
2019-03-28T09:33:20.531Z,100497.47
2019-03-28T09:34:54.782Z,100497.70
2019-03-28T09:36:29.046Z,100498.02
2019-03-28T09:38:03.889Z,100502.27
2019-03-28T09:39:38.360Z,100498.70
2019-03-28T09:41:12.610Z,100492.53
2019-03-28T09:42:46.922Z,100496.23
2019-03-28T09:44:21.352Z,100495.28
2019-03-28T09:45:55.652Z,100496.48
2019-03-28T09:47:30.406Z,100492.88
2019-03-28T09:49:05.192Z,100491.91
2019-03-28T09:50:39.812Z,100486.03
2019-03-28T09:52:14.022Z,100488.88
2019-03-28T09:53:48.240Z,100490.47
2019-03-28T09:55:22.488Z,100487.39
2019-03-28T09:56:57.148Z,100485.41
2019-03-28T09:58:31.437Z,100483.45
2019-03-28T10:00:11.535Z,100483.98
2019-03-28T10:01:45.729Z,100480.81
2019-03-28T10:03:20.443Z,100480.78
2019-03-28T10:04:54.789Z,100482.50
2019-03-28T10:06:29.109Z,100485.97
2019-03-28T10:08:03.387Z,100482.49
2019-03-28T10:09:38.090Z,100484.29
2019-03-28T10:11:12.386Z,100476.05
2019-03-28T10:12:46.627Z,100477.55
2019-03-28T10:14:20.964Z,100476.73
2019-03-28T10:15:57.464Z,100477.98
2019-03-28T10:17:31.710Z,100474.77
2019-03-28T10:19:05.997Z,100479.07
2019-03-28T10:20:40.906Z,100480.23
2019-03-28T10:22:15.649Z,100468.89
2019-03-28T10:23:49.879Z,100472.63
2019-03-28T10:25:24.065Z,100472.91
2019-03-28T10:26:58.428Z,100475.66
2019-03-28T10:28:32.900Z,100478.38
2019-03-28T10:30:08.796Z,100468.95
2019-03-28T10:31:43.160Z,100471.03
2019-03-28T10:33:17.478Z,100462.08
2019-03-28T10:34:51.905Z,100460.03
2019-03-28T10:36:27.954Z,100455.09
2019-03-28T10:38:02.469Z,100460.23
2019-03-28T10:39:36.716Z,100466.29
2019-03-28T10:41:11.147Z,100461.80
2019-03-28T10:42:45.354Z,100451.13
2019-03-28T10:44:19.606Z,100457.30
2019-03-28T10:45:53.909Z,100458.42
2019-03-28T10:47:28.415Z,100454.81
2019-03-28T10:49:02.734Z,100452.89
2019-03-28T10:50:42.442Z,100454.79
2019-03-28T10:52:12.922Z,100450.89
2019-03-28T10:53:47.607Z,100449.98
2019-03-28T10:55:21.797Z,100450.41
2019-03-28T10:56:58.048Z,100446.37
2019-03-28T10:58:34.861Z,100439.91
2019-03-28T11:00:23.024Z,100442.56
2019-03-28T11:01:49.915Z,100433.43
2019-03-28T11:03:23.259Z,100434.74
2019-03-28T11:04:59.469Z,100430.72
2019-03-28T11:06:33.546Z,100429.91
2019-03-28T11:08:09.885Z,100428.83
2019-03-28T11:09:45.124Z,100420.75
2019-03-28T11:11:19.921Z,100420.84
2019-03-28T11:12:54.412Z,100427.80
2019-03-28T11:14:28.627Z,100424.34
2019-03-28T11:16:02.965Z,100427.41
2019-03-28T11:17:37.245Z,100427.67
2019-03-28T11:19:11.654Z,100422.45
2019-03-28T11:20:45.923Z,100423.33
2019-03-28T11:22:20.267Z,100421.47
2019-03-28T11:23:54.582Z,100424.77
2019-03-28T11:25:29.085Z,100422.19
2019-03-28T11:27:03.351Z,100418.02
2019-03-28T11:28:37.586Z,100409.06
2019-03-28T11:30:12.571Z,100415.45
2019-03-28T11:31:51.442Z,100410.23
2019-03-28T11:33:23.036Z,100413.06
2019-03-28T11:34:57.320Z,100404.83
2019-03-28T11:36:31.666Z,100403.81
2019-03-28T11:38:09.328Z,100396.22
2019-03-28T11:39:42.181Z,100393.92
2019-03-28T11:41:16.407Z,100386.70
2019-03-28T11:42:52.108Z,100398.46
2019-03-28T11:44:26.697Z,100384.62
2019-03-28T11:46:00.909Z,100391.45
2019-03-28T11:47:35.208Z,100388.45
2019-03-28T11:49:09.480Z,100384.22
2019-03-28T11:50:43.793Z,100386.03
2019-03-28T11:52:18.115Z,100386.54
2019-03-28T11:53:52.427Z,100378.25
2019-03-28T11:55:26.782Z,100372.67
2019-03-28T11:57:01.666Z,100373.98
2019-03-28T11:58:35.939Z,100371.52
2019-03-28T12:00:16.474Z,100377.27
2019-03-28T12:01:59.892Z,100373.16
2019-03-28T12:03:26.899Z,100368.55
2019-03-28T12:05:01.166Z,100360.07
2019-03-28T12:06:35.471Z,100365.58
2019-03-28T12:08:09.693Z,100366.52
2019-03-28T12:09:44.165Z,100362.98
2019-03-28T12:11:18.517Z,100355.50
2019-03-28T12:12:52.831Z,100351.88
2019-03-28T12:14:31.607Z,100354.47
2019-03-28T12:16:17.001Z,100353.77
2019-03-28T12:17:51.387Z,100352.28
2019-03-28T12:19:25.631Z,100347.27
2019-03-28T12:20:59.911Z,100344.88
2019-03-28T12:22:34.232Z,100343.34
2019-03-28T12:24:08.606Z,100347.83
2019-03-28T12:25:42.917Z,100352.41
2019-03-28T12:27:17.138Z,100342.40
2019-03-28T12:28:51.637Z,100341.80
2019-03-28T12:30:25.855Z,100337.73
2019-03-28T12:32:13.085Z,100338.40
2019-03-28T12:33:37.507Z,100334.11
2019-03-28T12:35:12.158Z,100332.47
2019-03-28T12:36:46.348Z,100340.17
2019-03-28T12:38:20.624Z,100337.54
2019-03-28T12:39:54.821Z,100337.16
2019-03-28T12:41:29.678Z,100328.33
2019-03-28T12:43:03.901Z,100333.52
2019-03-28T12:44:38.255Z,100330.84
2019-03-28T12:46:13.189Z,100330.39
2019-03-28T12:47:47.753Z,100327.96
2019-03-28T12:49:21.980Z,100326.53
2019-03-28T12:50:59.038Z,100331.70
2019-03-28T12:52:32.208Z,100332.22
2019-03-28T12:54:06.548Z,100318.74
2019-03-28T12:55:40.753Z,100327.66
2019-03-28T12:57:15.017Z,100324.94
2019-03-28T12:58:49.247Z,100326.80
2019-03-28T13:00:26.642Z,100321.19
2019-03-28T13:02:00.981Z,100322.95
2019-03-28T13:03:45.338Z,100314.21
2019-03-28T13:05:11.563Z,100322.94
2019-03-28T13:06:46.146Z,100321.80
2019-03-28T13:08:20.360Z,100316.02
2019-03-28T13:09:54.676Z,100322.40
2019-03-28T13:11:28.947Z,100320.47
2019-03-28T13:13:03.886Z,100316.33
2019-03-28T13:14:38.433Z,100315.16
2019-03-28T13:16:12.693Z,100313.36
2019-03-28T13:17:46.926Z,100319.67
2019-03-28T13:19:21.345Z,100311.27
2019-03-28T13:20:55.578Z,100317.08
2019-03-28T13:22:29.844Z,100315.44
2019-03-28T13:24:04.150Z,100313.31
2019-03-28T13:25:38.686Z,100307.84
2019-03-28T13:27:12.919Z,100298.03
2019-03-28T13:28:47.163Z,100305.19
2019-03-28T13:30:21.462Z,100304.52
2019-03-28T13:31:56.148Z,100304.54
2019-03-28T13:33:30.475Z,100303.55
2019-03-28T13:35:06.720Z,100302.34
2019-03-28T13:36:41.018Z,100303.70
2019-03-28T13:38:15.532Z,100300.84
2019-03-28T13:39:51.467Z,100304.47
2019-03-28T13:41:25.693Z,100301.61
2019-03-28T13:43:00.325Z,100303.61
2019-03-28T13:44:34.683Z,100302.86
2019-03-28T13:46:08.971Z,100302.48
2019-03-28T13:47:43.209Z,100299.38
2019-03-28T13:49:17.468Z,100300.63
2019-03-28T13:50:54.682Z,100296.70
2019-03-28T13:52:27.990Z,100296.50
2019-03-28T13:54:02.221Z,100292.12
2019-03-28T13:55:37.629Z,100302.25
2019-03-28T13:57:12.062Z,100301.63
2019-03-28T13:58:46.293Z,100305.37
2019-03-28T14:00:32.024Z,100290.89
2019-03-28T14:02:07.087Z,100300.22
2019-03-28T14:03:41.627Z,100293.38
2019-03-28T14:05:15.927Z,100292.47
2019-03-28T14:06:50.218Z,100295.00
2019-03-28T14:08:24.418Z,100288.92
2019-03-28T14:09:59.061Z,100294.16
2019-03-28T14:11:33.343Z,100301.00
2019-03-28T14:13:07.571Z,100295.48
2019-03-28T14:14:43.121Z,100299.56
2019-03-28T14:16:17.439Z,100301.34
2019-03-28T14:17:51.734Z,100292.52
2019-03-28T14:19:25.954Z,100292.16
2019-03-28T14:21:00.232Z,100297.76
2019-03-28T14:22:35.066Z,100289.45
2019-03-28T14:24:12.333Z,100294.16
2019-03-28T14:25:46.636Z,100294.64
2019-03-28T14:27:20.926Z,100294.98
2019-03-28T14:28:55.355Z,100292.44
2019-03-28T14:30:29.827Z,100289.56
2019-03-28T14:32:04.066Z,100293.34
2019-03-28T14:33:38.347Z,100294.44
2019-03-28T14:35:12.811Z,100286.42
2019-03-28T14:36:47.078Z,100279.71
2019-03-28T14:38:21.386Z,100281.30
2019-03-28T14:39:55.655Z,100280.13
2019-03-28T14:41:30.134Z,100283.77
2019-03-28T14:43:04.423Z,100280.21
2019-03-28T14:44:38.697Z,100275.78
2019-03-28T14:46:12.947Z,100279.05
2019-03-28T14:47:48.667Z,100276.93
2019-03-28T14:49:23.054Z,100282.92
2019-03-28T14:50:57.823Z,100278.86
2019-03-28T14:52:32.119Z,100274.97
2019-03-28T14:54:06.757Z,100269.56
2019-03-28T14:55:40.941Z,100274.45
2019-03-28T14:57:16.383Z,100268.02
2019-03-28T14:58:52.939Z,100274.01
2019-03-28T15:00:48.146Z,100272.98
2019-03-28T15:02:22.515Z,100263.63
2019-03-28T15:03:56.802Z,100273.19
2019-03-28T15:05:31.085Z,100271.17
2019-03-28T15:07:07.287Z,100276.30
2019-03-28T15:08:41.355Z,100271.18
2019-03-28T15:10:15.569Z,100278.61
2019-03-28T15:11:49.890Z,100276.22
2019-03-28T15:13:24.350Z,100279.67
2019-03-28T15:14:58.568Z,100279.09
2019-03-28T15:16:32.825Z,100275.54
2019-03-28T15:18:07.061Z,100278.88
2019-03-28T15:19:41.589Z,100276.68
2019-03-28T15:21:15.930Z,100280.23
2019-03-28T15:22:50.133Z,100278.84
2019-03-28T15:24:24.362Z,100281.59
2019-03-28T15:25:58.962Z,100274.46
2019-03-28T15:27:33.181Z,100276.06
2019-03-28T15:29:07.496Z,100277.87
2019-03-28T15:30:41.813Z,100276.53
2019-03-28T15:32:16.521Z,100281.02
2019-03-28T15:33:50.835Z,100277.36
2019-03-28T15:35:25.131Z,100278.48
2019-03-28T15:36:59.353Z,100269.55
2019-03-28T15:38:33.805Z,100281.77
2019-03-28T15:40:08.343Z,100289.38
2019-03-28T15:41:43.741Z,100291.05
2019-03-28T15:43:17.959Z,100288.09
2019-03-28T15:44:53.771Z,100291.63
2019-03-28T15:46:28.492Z,100297.36
2019-03-28T15:48:02.811Z,100302.19
2019-03-28T15:49:37.136Z,100295.91
2019-03-28T15:51:11.832Z,100302.11
2019-03-28T15:52:47.870Z,100301.41
2019-03-28T15:54:22.208Z,100302.16
2019-03-28T15:55:56.424Z,100296.50
2019-03-28T15:57:31.238Z,100306.16
2019-03-28T15:59:05.479Z,100306.51
2019-03-28T16:00:39.726Z,100309.62
2019-03-28T16:02:14.047Z,100308.84
2019-03-28T16:03:53.167Z,100311.91
2019-03-28T16:05:24.349Z,100312.67
2019-03-28T16:06:58.577Z,100312.77
2019-03-28T16:08:33.138Z,100319.35
2019-03-28T16:10:09.704Z,100315.19
2019-03-28T16:11:44.068Z,100318.26
2019-03-28T16:13:18.422Z,100315.22
2019-03-28T16:14:52.682Z,100320.66
2019-03-28T16:16:28.274Z,100317.41
2019-03-28T16:18:02.736Z,100275.97
2019-03-28T16:19:37.042Z,100319.43
2019-03-28T16:21:14.010Z,100321.97
2019-03-28T16:22:48.742Z,100330.95
2019-03-28T16:24:23.014Z,100329.00
2019-03-28T16:25:57.319Z,100328.69
2019-03-28T16:27:31.634Z,100333.90
2019-03-28T16:29:07.324Z,100332.39
2019-03-28T16:30:43.485Z,100325.75
2019-03-28T16:32:17.808Z,100329.05
2019-03-28T16:34:05.687Z,100335.22
2019-03-28T16:35:29.658Z,100328.66
2019-03-28T16:37:03.887Z,100338.98
2019-03-28T16:38:38.112Z,100335.85
2019-03-28T16:40:12.754Z,100341.28
2019-03-28T16:41:47.389Z,100338.08
2019-03-28T16:43:21.716Z,100346.80
2019-03-28T16:44:55.953Z,100346.52
2019-03-28T16:46:30.206Z,100344.95
2019-03-28T16:48:05.339Z,100351.70
2019-03-28T16:49:39.592Z,100349.30
2019-03-28T16:51:13.889Z,100348.77
2019-03-28T16:52:48.387Z,100345.80
2019-03-28T16:54:23.105Z,100352.09
2019-03-28T16:55:57.333Z,100356.34
2019-03-28T16:57:33.118Z,100356.69
2019-03-28T16:59:07.455Z,100356.56
2019-03-28T17:00:41.990Z,100356.87
2019-03-28T17:02:16.281Z,100360.16
2019-03-28T17:03:50.571Z,100361.25
2019-03-28T17:05:24.809Z,100362.92
2019-03-28T17:07:01.097Z,100361.09
2019-03-28T17:08:37.079Z,100360.48
2019-03-28T17:10:14.359Z,100356.91
2019-03-28T17:11:49.720Z,100366.16
2019-03-28T17:13:24.429Z,100364.69
2019-03-28T17:15:00.283Z,100367.94
2019-03-28T17:16:34.738Z,100370.70
2019-03-28T17:18:09.093Z,100361.05
2019-03-28T17:19:43.552Z,100364.53
2019-03-28T17:21:23.219Z,100368.04
2019-03-28T17:22:56.382Z,100371.84
2019-03-28T17:24:30.617Z,100379.71
2019-03-28T17:26:05.912Z,100378.12
2019-03-28T17:27:40.231Z,100379.53
2019-03-28T17:29:14.511Z,100380.51
2019-03-28T17:30:48.877Z,100378.77
2019-03-28T17:32:24.030Z,100382.38
2019-03-28T17:33:58.468Z,100387.35
2019-03-28T17:35:32.835Z,100387.31
2019-03-28T17:37:07.143Z,100381.75
2019-03-28T17:38:41.731Z,100386.44
2019-03-28T17:40:16.070Z,100385.71
2019-03-28T17:41:52.612Z,100385.28
2019-03-28T17:43:27.348Z,100391.77
2019-03-28T17:45:01.863Z,100386.83
2019-03-28T17:46:36.175Z,100387.61
2019-03-28T17:48:10.398Z,100390.78
2019-03-28T17:49:44.595Z,100387.98
2019-03-28T17:51:19.089Z,100381.24
2019-03-28T17:52:53.755Z,100387.30
2019-03-28T17:54:28.373Z,100384.52
2019-03-28T17:56:02.686Z,100389.98
2019-03-28T17:57:37.245Z,100391.84
2019-03-28T17:59:11.502Z,100396.55